createdAt,value
2019-01-16T00:02:19.386Z,7.47
2019-01-16T00:05:01.155Z,7.73
2019-01-16T00:07:36.760Z,7.30
2019-01-16T00:12:57.250Z,6.93
2019-01-16T00:15:27.166Z,7.50
2019-01-16T00:18:02.887Z,7.43
2019-01-16T00:20:35.545Z,6.37
2019-01-16T00:23:07.841Z,8.50
2019-01-16T00:25:40.458Z,9.77
2019-01-16T00:28:10.354Z,6.97
2019-01-16T00:30:47.710Z,8.47
2019-01-16T00:33:33.073Z,8.33
2019-01-16T00:36:20.484Z,9.50
2019-01-16T00:39:10.047Z,7.93
2019-01-16T00:42:03.678Z,10.37
2019-01-16T00:44:37.280Z,9.47
2019-01-16T00:47:38.488Z,9.67
2019-01-16T00:50:26.617Z,8.33
2019-01-16T00:53:16.057Z,9.63
2019-01-16T00:55:57.472Z,10.20
2019-01-16T00:58:36.036Z,10.40
2019-01-16T01:01:05.287Z,10.53
2019-01-16T01:03:35.204Z,10.03
2019-01-16T01:06:21.634Z,10.57
2019-01-16T01:08:51.524Z,12.60
2019-01-16T01:11:24.094Z,9.70
2019-01-16T01:16:55.105Z,14.73
2019-01-16T01:19:27.339Z,9.83
2019-01-16T01:22:01.467Z,10.33
2019-01-16T01:24:31.391Z,12.27
2019-01-16T01:27:01.322Z,10.83
2019-01-16T01:29:36.860Z,11.73
2019-01-16T01:32:06.942Z,10.70
2019-01-16T01:34:41.940Z,10.97
2019-01-16T01:37:32.110Z,11.13
2019-01-16T01:40:05.211Z,9.80
2019-01-16T01:43:16.887Z,12.50
2019-01-16T01:45:52.910Z,7.33
2019-01-16T01:48:40.066Z,10.43
2019-01-16T01:51:16.407Z,11.23
2019-01-16T01:53:54.957Z,9.60
2019-01-16T01:56:24.869Z,8.77
2019-01-16T01:58:57.422Z,9.57
2019-01-16T02:01:27.411Z,12.10
2019-01-16T02:04:03.097Z,10.40
2019-01-16T02:06:39.140Z,6.67
2019-01-16T02:09:09.027Z,6.90
2019-01-16T02:11:41.913Z,8.03
2019-01-16T02:14:14.791Z,9.50
2019-01-16T02:16:44.713Z,7.43
2019-01-16T02:19:14.590Z,8.40
2019-01-16T02:21:47.315Z,9.10
2019-01-16T02:24:26.409Z,9.47
2019-01-16T02:26:59.409Z,10.13
2019-01-16T02:29:29.307Z,7.37
2019-01-16T02:31:59.205Z,8.13
2019-01-16T02:34:29.183Z,8.23
2019-01-16T02:36:59.154Z,8.83
2019-01-16T02:39:29.042Z,6.90
2019-01-16T02:41:58.946Z,7.83
2019-01-16T02:44:41.000Z,8.43
2019-01-16T02:47:17.049Z,7.87
2019-01-16T02:49:59.136Z,7.10
2019-01-16T02:52:34.758Z,8.30
2019-01-16T02:55:07.430Z,6.23
2019-01-16T02:57:52.374Z,8.20
2019-01-16T03:00:25.006Z,7.43
2019-01-16T03:03:03.683Z,10.03
2019-01-16T03:05:39.364Z,7.77
2019-01-16T03:08:17.996Z,9.87
2019-01-16T03:10:50.590Z,8.33
2019-01-16T03:13:20.542Z,6.93
2019-01-16T03:16:02.730Z,9.40
2019-01-16T03:18:48.916Z,10.00
2019-01-16T03:21:21.492Z,7.67
2019-01-16T03:24:10.387Z,7.97
2019-01-16T03:26:49.281Z,7.40
2019-01-16T03:29:37.392Z,8.47
2019-01-16T03:32:16.528Z,10.10
2019-01-16T03:34:46.452Z,8.37
2019-01-16T03:37:16.344Z,8.73
2019-01-16T03:39:58.458Z,10.17
2019-01-16T03:42:31.083Z,8.63
2019-01-16T03:45:00.986Z,13.00
2019-01-16T03:47:30.919Z,8.40
2019-01-16T03:50:03.622Z,9.87
2019-01-16T03:52:33.535Z,9.97
2019-01-16T03:55:15.572Z,9.57
2019-01-16T03:57:48.184Z,8.67
2019-01-16T04:00:36.067Z,8.97
2019-01-16T04:03:22.225Z,7.77
2019-01-16T04:05:55.181Z,7.83
2019-01-16T04:08:25.093Z,8.00
2019-01-16T04:10:54.979Z,9.03
2019-01-16T04:13:41.536Z,10.70
2019-01-16T04:18:50.130Z,8.63
2019-01-16T04:24:07.852Z,7.43
2019-01-16T04:26:54.224Z,8.73
2019-01-16T04:29:30.120Z,7.20
2019-01-16T04:32:00.037Z,8.73
2019-01-16T04:34:29.922Z,8.27
2019-01-16T04:37:17.795Z,9.37
2019-01-16T04:39:47.692Z,12.43
2019-01-16T04:45:12.132Z,7.20
2019-01-16T04:47:42.031Z,7.73
2019-01-16T04:50:17.921Z,7.20
2019-01-16T04:52:47.823Z,9.17
2019-01-16T04:55:20.410Z,9.67
2019-01-16T04:57:59.408Z,9.83
2019-01-16T05:00:32.228Z,8.83
2019-01-16T05:03:11.260Z,9.17
2019-01-16T05:05:59.517Z,6.80
2019-01-16T05:08:29.419Z,7.53
2019-01-16T05:11:11.271Z,7.20
2019-01-16T05:13:59.143Z,7.40
2019-01-16T05:16:35.128Z,5.33
2019-01-16T05:19:07.713Z,6.30
2019-01-16T05:24:18.730Z,8.20
2019-01-16T05:26:51.033Z,6.47
2019-01-16T05:29:37.409Z,4.23
2019-01-16T05:32:29.502Z,5.67
2019-01-16T05:35:02.169Z,4.60
2019-01-16T05:37:32.073Z,5.00
2019-01-16T05:40:04.890Z,7.63
2019-01-16T05:42:53.229Z,9.87
2019-01-16T05:45:31.984Z,7.43
2019-01-16T05:48:01.894Z,7.90
2019-01-16T05:50:48.424Z,5.73
2019-01-16T05:53:21.298Z,5.77
2019-01-16T05:55:57.138Z,5.77
2019-01-16T05:58:27.034Z,5.87
2019-01-16T06:01:12.012Z,6.30
2019-01-16T06:03:58.321Z,5.10
2019-01-16T06:06:28.218Z,4.67
2019-01-16T06:09:00.816Z,3.53
2019-01-16T06:11:36.414Z,11.10
2019-01-16T06:14:12.039Z,4.47
2019-01-16T06:16:41.930Z,3.93
2019-01-16T06:19:11.827Z,4.27
2019-01-16T06:24:50.393Z,4.60
2019-01-16T06:27:38.379Z,4.03
2019-01-16T06:30:27.697Z,4.10
2019-01-16T06:32:57.605Z,4.67
2019-01-16T06:35:32.946Z,4.10
2019-01-16T06:38:05.821Z,5.97
2019-01-16T06:40:35.710Z,5.57
2019-01-16T06:43:05.605Z,5.20
2019-01-16T06:45:35.497Z,5.90
2019-01-16T06:50:59.462Z,5.27
2019-01-16T06:53:30.016Z,5.07
2019-01-16T06:56:24.381Z,4.27
2019-01-16T06:59:17.640Z,5.33
2019-01-16T07:01:53.648Z,4.97
2019-01-16T07:04:40.026Z,5.07
2019-01-16T07:07:26.294Z,4.43
2019-01-16T07:10:14.949Z,5.93
2019-01-16T07:12:55.258Z,8.50
2019-01-16T07:15:34.193Z,8.87
2019-01-16T07:18:22.378Z,6.50
2019-01-16T07:21:01.725Z,5.97
2019-01-16T07:26:24.671Z,7.57
2019-01-16T07:28:54.574Z,6.90
2019-01-16T07:31:24.474Z,6.73
2019-01-16T07:33:54.396Z,7.67
2019-01-16T07:39:34.182Z,5.00
2019-01-16T07:42:22.196Z,5.67
2019-01-16T07:45:08.542Z,5.33
2019-01-16T07:47:44.007Z,2.90
2019-01-16T07:53:08.660Z,6.37
2019-01-16T07:55:53.420Z,5.60
2019-01-16T07:58:23.342Z,4.90
2019-01-16T08:00:53.261Z,9.83
2019-01-16T08:06:04.746Z,6.50
2019-01-16T08:08:51.097Z,5.63
2019-01-16T08:14:35.340Z,6.07
2019-01-16T08:17:11.097Z,6.00
2019-01-16T08:19:57.521Z,4.00
2019-01-16T08:22:42.694Z,3.50
2019-01-16T08:25:28.528Z,5.40
2019-01-16T08:28:34.000Z,3.53
2019-01-16T08:31:04.174Z,4.20
2019-01-16T08:33:37.213Z,5.53
2019-01-16T08:36:09.811Z,3.77
2019-01-16T08:38:51.926Z,3.90
2019-01-16T08:41:38.514Z,3.83
2019-01-16T08:44:20.751Z,5.03
2019-01-16T08:46:59.582Z,5.40
2019-01-16T08:49:46.128Z,3.50
2019-01-16T08:52:31.046Z,4.17
2019-01-16T08:55:09.966Z,4.60
2019-01-16T08:57:39.858Z,3.83
2019-01-16T09:00:29.490Z,4.70
2019-01-16T09:03:08.650Z,3.43
2019-01-16T09:05:38.545Z,4.63
2019-01-16T09:08:26.752Z,3.70
2019-01-16T09:11:13.572Z,3.90
2019-01-16T09:16:30.741Z,3.70
2019-01-16T09:19:00.680Z,4.00
2019-01-16T09:21:48.560Z,4.47
2019-01-16T09:24:24.659Z,6.03
2019-01-16T09:26:54.576Z,4.37
2019-01-16T09:29:30.457Z,3.67
2019-01-16T09:35:00.982Z,3.00
2019-01-16T09:40:52.319Z,3.10
2019-01-16T09:43:22.203Z,3.20
2019-01-16T09:45:54.798Z,3.97
2019-01-16T09:48:30.421Z,3.27
2019-01-16T09:51:16.551Z,3.87
2019-01-16T09:53:46.449Z,2.33
2019-01-16T09:56:32.510Z,4.30
2019-01-16T09:59:02.419Z,1.87
2019-01-16T10:01:35.226Z,5.53
2019-01-16T10:04:14.286Z,2.97
2019-01-16T10:07:02.414Z,4.43
2019-01-16T10:09:32.323Z,1.87
2019-01-16T10:17:43.491Z,5.67
2019-01-16T10:20:16.409Z,3.33
2019-01-16T10:22:46.293Z,3.10
2019-01-16T10:25:19.304Z,2.97
2019-01-16T10:28:03.886Z,3.13
2019-01-16T10:30:36.343Z,3.77
2019-01-16T10:33:15.190Z,2.83
2019-01-16T10:35:45.066Z,4.87
2019-01-16T10:38:23.647Z,3.47
2019-01-16T10:44:03.339Z,2.80
2019-01-16T10:46:49.790Z,2.67
2019-01-16T10:49:19.714Z,3.83
2019-01-16T10:52:06.289Z,3.10
2019-01-16T10:54:36.328Z,4.27
2019-01-16T10:57:24.638Z,3.80
2019-01-16T10:59:57.472Z,2.87
2019-01-16T11:02:33.201Z,2.50
2019-01-16T11:05:15.355Z,4.37
2019-01-16T11:07:48.028Z,3.73
2019-01-16T11:10:27.252Z,2.37
2019-01-16T11:13:06.288Z,2.73
2019-01-16T11:15:42.072Z,2.63
2019-01-16T11:18:23.749Z,4.30
2019-01-16T11:20:53.657Z,2.40
2019-01-16T11:23:38.957Z,5.33
2019-01-16T11:26:11.758Z,2.63
2019-01-16T11:28:41.702Z,2.67
2019-01-16T11:31:28.146Z,3.27
2019-01-16T11:34:07.266Z,3.67
2019-01-16T11:36:53.653Z,4.27
2019-01-16T11:42:21.463Z,4.90
2019-01-16T11:47:35.583Z,3.40
2019-01-16T11:50:19.782Z,3.40
2019-01-16T11:53:13.974Z,5.33
2019-01-16T11:55:43.895Z,4.03
2019-01-16T11:58:19.454Z,2.97
2019-01-16T12:00:49.378Z,4.67
2019-01-16T12:03:35.231Z,4.93
2019-01-16T12:06:11.143Z,4.63
2019-01-16T12:08:57.532Z,3.23
2019-01-16T12:11:43.657Z,3.60
2019-01-16T12:14:13.586Z,4.30
2019-01-16T12:16:52.510Z,3.60
2019-01-16T12:19:34.515Z,3.07
2019-01-16T12:22:04.422Z,4.23
2019-01-16T12:24:50.615Z,4.27
2019-01-16T12:27:35.560Z,4.63
2019-01-16T12:30:26.642Z,4.27
2019-01-16T12:32:56.568Z,4.97
2019-01-16T12:35:26.478Z,5.03
2019-01-16T12:38:12.838Z,4.70
2019-01-16T12:40:45.549Z,2.90
2019-01-16T12:43:17.828Z,4.20
2019-01-16T12:45:47.717Z,5.07
2019-01-16T12:48:34.033Z,7.53
2019-01-16T12:51:03.959Z,3.90
2019-01-16T12:53:33.842Z,3.67
2019-01-16T12:56:06.837Z,6.30
2019-01-16T12:58:53.204Z,4.63
2019-01-16T13:01:23.228Z,5.13
2019-01-16T13:03:56.001Z,3.80
2019-01-16T13:09:01.625Z,5.97
2019-01-16T13:11:43.550Z,5.40
2019-01-16T13:14:13.537Z,4.53
2019-01-16T13:16:59.760Z,6.47
2019-01-16T13:19:29.772Z,4.37
2019-01-16T13:22:11.997Z,4.43
2019-01-16T13:24:51.212Z,6.90
2019-01-16T13:27:29.966Z,3.63
2019-01-16T13:29:59.856Z,6.20
2019-01-16T13:32:45.230Z,9.10
2019-01-16T13:35:31.458Z,5.70
2019-01-16T13:38:13.613Z,6.77
2019-01-16T13:43:52.428Z,5.67
2019-01-16T13:46:34.508Z,7.73
2019-01-16T13:49:20.622Z,5.37
2019-01-16T13:51:50.620Z,8.60
2019-01-16T13:54:23.282Z,7.23
2019-01-16T13:56:59.286Z,7.13
2019-01-16T13:59:35.127Z,8.77
2019-01-16T14:02:07.786Z,4.57
2019-01-16T14:04:40.487Z,4.57
2019-01-16T14:07:25.362Z,6.03
2019-01-16T14:09:55.297Z,8.03
2019-01-16T14:12:25.223Z,8.33
2019-01-16T14:15:01.375Z,5.50
2019-01-16T14:17:34.018Z,7.13
2019-01-16T14:20:06.608Z,5.67
2019-01-16T14:22:36.599Z,6.77
2019-01-16T14:25:06.849Z,7.17
2019-01-16T14:27:42.765Z,9.07
2019-01-16T14:30:24.586Z,9.40
2019-01-16T14:33:00.090Z,6.73
2019-01-16T14:35:46.507Z,5.17
2019-01-16T14:38:16.408Z,7.43
2019-01-16T14:40:55.363Z,5.63
2019-01-16T14:43:44.718Z,10.07
2019-01-16T14:46:17.615Z,5.87
2019-01-16T14:49:05.634Z,9.10
2019-01-16T14:51:44.738Z,5.43
2019-01-16T14:54:30.063Z,8.17
2019-01-16T14:57:05.966Z,8.40
2019-01-16T14:59:44.571Z,7.57
2019-01-16T15:02:23.674Z,5.70
2019-01-16T15:04:53.581Z,9.07
2019-01-16T15:10:27.302Z,8.10
2019-01-16T15:12:59.901Z,7.37
2019-01-16T15:15:32.450Z,9.87
2019-01-16T15:18:08.046Z,8.03
2019-01-16T15:23:38.491Z,6.97
2019-01-16T15:26:08.429Z,8.20
2019-01-16T15:28:51.094Z,6.10
2019-01-16T15:31:37.328Z,7.77
2019-01-16T15:37:11.783Z,8.37
2019-01-16T15:39:47.463Z,10.43
2019-01-16T15:42:33.970Z,7.03
2019-01-16T15:45:03.859Z,7.23
2019-01-16T15:47:46.011Z,8.67
2019-01-16T15:50:21.899Z,11.20
2019-01-16T15:53:08.289Z,10.57
2019-01-16T15:55:40.678Z,12.53
2019-01-16T15:58:25.895Z,8.43
2019-01-16T16:01:14.187Z,10.10
2019-01-16T16:03:56.128Z,8.87
2019-01-16T16:06:37.713Z,12.13
2019-01-16T16:09:09.654Z,10.30
2019-01-16T16:11:48.429Z,11.97
2019-01-16T16:14:24.383Z,17.90
2019-01-16T16:16:57.488Z,14.47
2019-01-16T16:19:30.209Z,17.40
2019-01-16T16:22:12.290Z,11.63
2019-01-16T16:24:42.214Z,13.43
2019-01-16T16:27:21.342Z,9.83
2019-01-16T16:30:07.755Z,13.93
2019-01-16T16:32:52.698Z,15.17
2019-01-16T16:35:25.434Z,14.60
2019-01-16T16:38:10.207Z,24.80
2019-01-16T16:40:42.796Z,15.10
2019-01-16T16:43:29.050Z,14.10
2019-01-16T16:45:58.966Z,18.43
2019-01-16T16:48:31.590Z,23.40
2019-01-16T16:51:07.271Z,22.33
2019-01-16T16:53:42.923Z,21.37
2019-01-16T16:56:12.832Z,25.97
2019-01-16T16:58:57.982Z,22.97
2019-01-16T17:01:30.853Z,18.40
2019-01-16T17:04:03.491Z,23.03
2019-01-16T17:06:33.442Z,19.17
2019-01-16T17:09:21.275Z,14.97
2019-01-16T17:11:53.887Z,13.40
2019-01-16T17:14:23.797Z,19.30
2019-01-16T17:16:59.804Z,23.67
2019-01-16T17:19:38.654Z,17.80
2019-01-16T17:22:20.954Z,19.27
2019-01-16T17:24:59.666Z,21.63
2019-01-16T17:27:32.511Z,17.53
2019-01-16T17:30:08.146Z,22.57
2019-01-16T17:32:49.026Z,15.73
2019-01-16T17:35:35.710Z,22.67
2019-01-16T17:38:20.638Z,24.43
2019-01-16T17:40:56.448Z,16.17
2019-01-16T17:43:42.858Z,24.03
2019-01-16T17:46:28.027Z,13.60
2019-01-16T17:49:22.424Z,11.93
2019-01-16T17:51:52.430Z,10.23
2019-01-16T17:57:26.555Z,11.73
2019-01-16T18:00:05.561Z,11.23
2019-01-16T18:02:44.663Z,13.53
2019-01-16T18:08:15.704Z,9.63
2019-01-16T18:13:44.096Z,11.53
2019-01-16T18:16:32.007Z,10.50
2019-01-16T18:19:17.182Z,9.60
2019-01-16T18:22:03.646Z,12.47
2019-01-16T18:24:51.793Z,13.80
2019-01-16T18:27:30.429Z,11.20
2019-01-16T18:32:44.549Z,16.83
2019-01-16T18:35:29.666Z,15.13
2019-01-16T18:37:59.594Z,14.37
2019-01-16T18:40:32.191Z,15.97
2019-01-16T18:43:20.103Z,16.13
2019-01-16T18:46:06.297Z,60.17
2019-01-16T18:48:36.272Z,65.07
2019-01-16T18:51:09.017Z,20.43
2019-01-16T18:53:41.921Z,22.70
2019-01-16T18:56:24.084Z,22.43
2019-01-16T18:58:53.985Z,35.83
2019-01-16T19:01:39.237Z,25.70
2019-01-16T19:04:11.905Z,15.93
2019-01-16T19:06:44.498Z,18.97
2019-01-16T19:09:30.775Z,20.77
2019-01-16T19:12:18.769Z,20.40
2019-01-16T19:14:57.650Z,24.47
2019-01-16T19:17:42.548Z,24.77
2019-01-16T19:20:18.326Z,22.07
2019-01-16T19:22:48.234Z,21.73
2019-01-16T19:25:18.158Z,23.10
2019-01-16T19:28:00.210Z,22.47
2019-01-16T19:30:33.086Z,21.60
2019-01-16T19:35:47.522Z,22.73
2019-01-16T19:38:26.739Z,22.47
2019-01-16T19:41:18.749Z,70.83
2019-01-16T19:46:45.462Z,26.40
2019-01-16T19:49:30.387Z,23.27
2019-01-16T19:52:07.454Z,23.30
2019-01-16T19:54:52.890Z,25.80
2019-01-16T19:57:23.194Z,23.20
2019-01-16T19:59:53.147Z,22.63
2019-01-16T20:02:23.052Z,21.13
2019-01-16T20:05:05.183Z,22.50
2019-01-16T20:07:41.303Z,21.87
2019-01-16T20:10:28.575Z,21.23
2019-01-16T20:13:32.066Z,20.10
2019-01-16T20:16:02.257Z,31.27
2019-01-16T20:18:32.322Z,81.33
2019-01-16T20:21:02.365Z,89.83
2019-01-16T20:23:38.161Z,32.43
2019-01-16T20:26:11.367Z,22.30
2019-01-16T20:28:47.429Z,27.90
2019-01-16T20:31:35.181Z,20.30
2019-01-16T20:34:08.925Z,21.67
2019-01-16T20:36:42.182Z,18.27
2019-01-16T20:39:28.582Z,19.27
2019-01-16T20:41:58.865Z,20.47
2019-01-16T20:44:29.111Z,18.83
2019-01-16T20:47:11.506Z,22.63
2019-01-16T20:50:00.936Z,20.57
2019-01-16T20:52:37.079Z,20.20
2019-01-16T20:55:31.161Z,20.43
2019-01-16T21:00:55.660Z,20.83
2019-01-16T21:03:25.565Z,21.67
2019-01-16T21:05:55.489Z,24.50
2019-01-16T21:08:41.620Z,20.53
2019-01-16T21:11:17.495Z,25.30
2019-01-16T21:13:47.377Z,25.00
2019-01-16T21:16:35.518Z,21.23
2019-01-16T21:19:14.337Z,20.87
2019-01-16T21:21:44.230Z,19.27
2019-01-16T21:24:32.091Z,19.93
2019-01-16T21:27:01.989Z,21.13
2019-01-16T21:29:48.369Z,21.47
2019-01-16T21:32:21.221Z,17.77
2019-01-16T21:34:51.133Z,19.80
2019-01-16T21:37:29.832Z,19.47
2019-01-16T21:40:16.098Z,20.97
2019-01-16T21:42:52.096Z,18.63
2019-01-16T21:45:27.995Z,21.63
2019-01-16T21:48:00.905Z,19.23
2019-01-16T21:53:30.140Z,20.27
2019-01-16T21:55:55.494Z,22.20
2019-01-16T21:58:31.569Z,20.23
2019-01-16T22:01:01.489Z,25.40
2019-01-16T22:03:36.930Z,23.50
2019-01-16T22:06:09.534Z,21.90
2019-01-16T22:08:42.197Z,24.37
2019-01-16T22:11:12.106Z,20.90
2019-01-16T22:13:48.011Z,22.30
2019-01-16T22:16:36.152Z,20.50
2019-01-16T22:19:10.766Z,20.17
2019-01-16T22:21:49.859Z,27.07
2019-01-16T22:24:31.921Z,24.23
2019-01-16T22:27:27.543Z,20.37
2019-01-16T22:30:17.794Z,19.63
2019-01-16T22:32:50.535Z,16.87
2019-01-16T22:35:20.439Z,18.20
2019-01-16T22:37:50.342Z,21.67
2019-01-16T22:40:26.412Z,20.00
2019-01-16T22:43:02.236Z,19.87
2019-01-16T22:45:34.829Z,16.67
2019-01-16T22:48:07.698Z,18.30
2019-01-16T22:50:52.956Z,14.97
2019-01-16T22:53:25.586Z,19.33
2019-01-16T22:56:04.757Z,18.73
2019-01-16T22:58:40.865Z,14.33
2019-01-16T23:01:12.421Z,15.43
2019-01-16T23:03:54.353Z,20.27
2019-01-16T23:06:30.399Z,15.17
2019-01-16T23:09:18.584Z,15.27
2019-01-16T23:11:48.473Z,14.03
2019-01-16T23:14:24.348Z,14.20
2019-01-16T23:19:37.001Z,18.50
2019-01-16T23:22:18.376Z,11.97
2019-01-16T23:24:48.282Z,14.17
2019-01-16T23:27:24.178Z,14.43
2019-01-16T23:30:03.119Z,11.97
2019-01-16T23:35:27.407Z,35.37
2019-01-16T23:41:04.182Z,19.40
2019-01-16T23:43:34.119Z,17.53
2019-01-16T23:46:12.888Z,15.93
2019-01-16T23:49:00.817Z,14.17
2019-01-16T23:51:45.441Z,18.97
2019-01-16T23:54:15.649Z,17.70
2019-01-16T23:56:45.638Z,14.27
2019-01-16T23:59:18.516Z,12.47
